sensor_id;sensor_type;location;lat;lon;timestamp;pressure;altitude;pressure_sealevel;temperature;humidity
57990;BME280;58373;51.824;5.564;2023-05-20T00:02:23;102358.75;;;12.32;64.06
57990;BME280;58373;51.824;5.564;2023-05-20T00:04:48;102362.28;;;12.31;64.47
57990;BME280;58373;51.824;5.564;2023-05-20T00:07:13;102367.38;;;12.33;64.07
57990;BME280;58373;51.824;5.564;2023-05-20T00:09:38;102364.88;;;12.31;63.77
57990;BME280;58373;51.824;5.564;2023-05-20T00:12:04;102370.19;;;12.30;64.30
57990;BME280;58373;51.824;5.564;2023-05-20T00:14:29;102368.72;;;12.26;64.28
57990;BME280;58373;51.824;5.564;2023-05-20T00:16:54;102367.34;;;12.20;64.64
57990;BME280;58373;51.824;5.564;2023-05-20T00:19:19;102359.53;;;12.20;64.71
57990;BME280;58373;51.824;5.564;2023-05-20T00:21:45;102362.41;;;12.15;66.55
57990;BME280;58373;51.824;5.564;2023-05-20T00:24:10;102356.59;;;12.12;66.25
57990;BME280;58373;51.824;5.564;2023-05-20T00:26:36;102371.75;;;12.05;66.44
57990;BME280;58373;51.824;5.564;2023-05-20T00:29:01;102370.28;;;12.01;66.60
57990;BME280;58373;51.824;5.564;2023-05-20T00:31:26;102358.59;;;11.94;67.53
57990;BME280;58373;51.824;5.564;2023-05-20T00:33:51;102365.84;;;11.89;66.87
57990;BME280;58373;51.824;5.564;2023-05-20T00:36:17;102360.81;;;11.86;66.15
57990;BME280;58373;51.824;5.564;2023-05-20T00:38:42;102359.16;;;11.85;66.90
57990;BME280;58373;51.824;5.564;2023-05-20T00:41:07;102360.81;;;11.86;66.50
57990;BME280;58373;51.824;5.564;2023-05-20T00:43:32;102361.88;;;11.83;66.25
57990;BME280;58373;51.824;5.564;2023-05-20T00:45:57;102361.03;;;11.83;66.52
57990;BME280;58373;51.824;5.564;2023-05-20T00:48:24;102366.22;;;11.83;67.38
57990;BME280;58373;51.824;5.564;2023-05-20T00:50:49;102367.22;;;11.80;66.36
57990;BME280;58373;51.824;5.564;2023-05-20T00:53:17;102356.19;;;11.77;67.33
57990;BME280;58373;51.824;5.564;2023-05-20T00:55:44;102351.38;;;11.70;68.34
57990;BME280;58373;51.824;5.564;2023-05-20T00:58:09;102348.78;;;11.70;67.61
57990;BME280;58373;51.824;5.564;2023-05-20T01:00:35;102340.13;;;11.70;66.71
57990;BME280;58373;51.824;5.564;2023-05-20T01:03:00;102334.94;;;11.70;66.62
57990;BME280;58373;51.824;5.564;2023-05-20T01:05:25;102340.13;;;11.70;67.28
57990;BME280;58373;51.824;5.564;2023-05-20T01:07:50;102342.81;;;11.68;67.17
57990;BME280;58373;51.824;5.564;2023-05-20T01:10:16;102336.16;;;11.64;67.99
57990;BME280;58373;51.824;5.564;2023-05-20T01:12:42;102339.66;;;11.63;67.22
57990;BME280;58373;51.824;5.564;2023-05-20T01:15:10;102350.06;;;11.63;67.42
57990;BME280;58373;51.824;5.564;2023-05-20T01:17:43;102338.00;;;11.62;67.55
57990;BME280;58373;51.824;5.564;2023-05-20T01:20:10;102336.34;;;11.61;67.61
57990;BME280;58373;51.824;5.564;2023-05-20T01:22:37;102339.66;;;11.63;67.31
57990;BME280;58373;51.824;5.564;2023-05-20T01:25:03;102342.38;;;11.62;67.51
57990;BME280;58373;51.824;5.564;2023-05-20T01:27:29;102336.34;;;11.61;68.73
57990;BME280;58373;51.824;5.564;2023-05-20T01:29:55;102336.50;;;11.58;67.76
57990;BME280;58373;51.824;5.564;2023-05-20T01:34:47;102330.56;;;11.56;69.46
57990;BME280;58373;51.824;5.564;2023-05-20T01:37:13;102341.91;;;11.55;68.96
57990;BME280;58373;51.824;5.564;2023-05-20T01:39:39;102330.03;;;11.51;68.28
57990;BME280;58373;51.824;5.564;2023-05-20T01:42:08;102328.34;;;11.50;68.64
57990;BME280;58373;51.824;5.564;2023-05-20T01:44:34;102332.63;;;11.51;69.67
57990;BME280;58373;51.824;5.564;2023-05-20T01:46:59;102327.63;;;11.48;69.12
57990;BME280;58373;51.824;5.564;2023-05-20T01:49:25;102321.66;;;11.46;69.35
57990;BME280;58373;51.824;5.564;2023-05-20T01:51:50;102316.69;;;11.43;69.46
57990;BME280;58373;51.824;5.564;2023-05-20T01:54:16;102317.63;;;11.42;69.47
57990;BME280;58373;51.824;5.564;2023-05-20T01:56:41;102314.81;;;11.45;68.65
57990;BME280;58373;51.824;5.564;2023-05-20T01:59:06;102314.81;;;11.45;68.39
57990;BME280;58373;51.824;5.564;2023-05-20T02:01:31;102319.19;;;11.44;69.42
57990;BME280;58373;51.824;5.564;2023-05-20T02:03:56;102311.50;;;11.43;70.70
57990;BME280;58373;51.824;5.564;2023-05-20T02:06:22;102311.50;;;11.43;70.38
57990;BME280;58373;51.824;5.564;2023-05-20T02:08:47;102311.50;;;11.43;69.12
57990;BME280;58373;51.824;5.564;2023-05-20T02:11:12;102309.81;;;11.42;70.19
57990;BME280;58373;51.824;5.564;2023-05-20T02:13:37;102319.66;;;11.37;69.94
57990;BME280;58373;51.824;5.564;2023-05-20T02:16:03;102318.91;;;11.35;71.76
57990;BME280;58373;51.824;5.564;2023-05-20T02:18:28;102319.09;;;11.32;71.71
57990;BME280;58373;51.824;5.564;2023-05-20T02:20:53;102314.06;;;11.29;70.12
57990;BME280;58373;51.824;5.564;2023-05-20T02:23:18;102313.91;;;11.32;70.61
57990;BME280;58373;51.824;5.564;2023-05-20T02:25:44;102308.72;;;11.32;71.83
57990;BME280;58373;51.824;5.564;2023-05-20T02:28:09;102306.22;;;11.30;71.23
57990;BME280;58373;51.824;5.564;2023-05-20T02:30:36;102312.41;;;11.28;72.56
57990;BME280;58373;51.824;5.564;2023-05-20T02:33:01;102307.22;;;11.28;70.58
57990;BME280;58373;51.824;5.564;2023-05-20T02:35:26;102297.75;;;11.27;72.08
57990;BME280;58373;51.824;5.564;2023-05-20T02:37:51;102297.03;;;11.25;71.64
57990;BME280;58373;51.824;5.564;2023-05-20T02:40:16;102301.41;;;11.24;71.49
57990;BME280;58373;51.824;5.564;2023-05-20T02:42:42;102304.91;;;11.23;72.82
57990;BME280;58373;51.824;5.564;2023-05-20T02:45:07;102302.22;;;11.25;72.04
57990;BME280;58373;51.824;5.564;2023-05-20T02:47:32;102298.69;;;11.26;72.81
57990;BME280;58373;51.824;5.564;2023-05-20T02:49:57;102299.69;;;11.23;72.12
57990;BME280;58373;51.824;5.564;2023-05-20T02:52:23;102295.34;;;11.24;71.88
57990;BME280;58373;51.824;5.564;2023-05-20T02:54:48;102293.69;;;11.23;71.71
57990;BME280;58373;51.824;5.564;2023-05-20T02:57:13;102292.75;;;11.24;71.12
57990;BME280;58373;51.824;5.564;2023-05-20T02:59:38;102297.03;;;11.25;71.11
57990;BME280;58373;51.824;5.564;2023-05-20T03:02:04;102296.38;;;11.21;71.89
57990;BME280;58373;51.824;5.564;2023-05-20T03:04:29;102290.34;;;11.21;71.26
57990;BME280;58373;51.824;5.564;2023-05-20T03:06:55;102295.53;;;11.21;71.85
57990;BME280;58373;51.824;5.564;2023-05-20T03:09:22;102291.19;;;11.21;72.17
57990;BME280;58373;51.824;5.564;2023-05-20T03:11:47;102287.75;;;11.21;71.77
57990;BME280;58373;51.824;5.564;2023-05-20T03:14:12;102285.31;;;11.17;72.37
57990;BME280;58373;51.824;5.564;2023-05-20T03:16:38;102297.56;;;11.15;72.04
57990;BME280;58373;51.824;5.564;2023-05-20T03:19:03;102296.84;;;11.13;72.23
57990;BME280;58373;51.824;5.564;2023-05-20T03:21:29;102297.94;;;11.09;72.56
57990;BME280;58373;51.824;5.564;2023-05-20T03:23:54;102291.25;;;11.05;73.48
57990;BME280;58373;51.824;5.564;2023-05-20T03:26:19;102301.00;;;11.02;72.36
57990;BME280;58373;51.824;5.564;2023-05-20T03:28:45;102298.50;;;11.00;72.08
57990;BME280;58373;51.824;5.564;2023-05-20T03:31:10;102303.88;;;10.97;73.03
57990;BME280;58373;51.824;5.564;2023-05-20T03:33:36;102293.66;;;10.94;72.64
57990;BME280;58373;51.824;5.564;2023-05-20T03:36:01;102305.72;;;10.95;72.78
57990;BME280;58373;51.824;5.564;2023-05-20T03:38:26;102306.56;;;10.96;73.37
57990;BME280;58373;51.824;5.564;2023-05-20T03:40:51;102298.69;;;10.97;73.41
57990;BME280;58373;51.824;5.564;2023-05-20T03:43:16;102298.69;;;10.97;74.17
57990;BME280;58373;51.824;5.564;2023-05-20T03:45:42;102295.34;;;10.95;73.70
57990;BME280;58373;51.824;5.564;2023-05-20T03:48:07;102293.66;;;10.94;73.23
57990;BME280;58373;51.824;5.564;2023-05-20T03:50:32;102300.72;;;10.92;73.53
57990;BME280;58373;51.824;5.564;2023-05-20T03:52:57;102297.38;;;10.90;73.58
57990;BME280;58373;51.824;5.564;2023-05-20T03:55:22;102296.53;;;10.89;73.80
57990;BME280;58373;51.824;5.564;2023-05-20T03:57:48;102300.16;;;10.87;72.95
57990;BME280;58373;51.824;5.564;2023-05-20T04:00:14;102294.03;;;10.88;73.38
57990;BME280;58373;51.824;5.564;2023-05-20T04:02:40;102299.22;;;10.88;73.88
57990;BME280;58373;51.824;5.564;2023-05-20T04:05:06;102290.69;;;10.86;74.71
57990;BME280;58373;51.824;5.564;2023-05-20T04:07:32;102289.03;;;10.85;74.48
57990;BME280;58373;51.824;5.564;2023-05-20T04:09:58;102299.59;;;10.82;73.99
57990;BME280;58373;51.824;5.564;2023-05-20T04:12:23;102299.69;;;10.80;74.23
57990;BME280;58373;51.824;5.564;2023-05-20T04:15:01;102302.44;;;10.77;74.43
57990;BME280;58373;51.824;5.564;2023-05-20T04:17:27;102299.78;;;10.79;73.67
57990;BME280;58373;51.824;5.564;2023-05-20T04:19:54;102297.91;;;10.81;73.61
57990;BME280;58373;51.824;5.564;2023-05-20T04:22:19;102302.19;;;10.82;74.58
57990;BME280;58373;51.824;5.564;2023-05-20T04:24:44;102295.44;;;10.79;74.67
57990;BME280;58373;51.824;5.564;2023-05-20T04:27:10;102290.13;;;10.81;75.05
57990;BME280;58373;51.824;5.564;2023-05-20T04:29:35;102294.50;;;10.80;74.05
57990;BME280;58373;51.824;5.564;2023-05-20T04:32:00;102288.38;;;10.81;74.62
57990;BME280;58373;51.824;5.564;2023-05-20T04:34:30;102299.41;;;10.85;74.34
57990;BME280;58373;51.824;5.564;2023-05-20T04:36:59;102290.59;;;10.87;74.08
57990;BME280;58373;51.824;5.564;2023-05-20T04:39:24;102294.13;;;10.86;75.07
57990;BME280;58373;51.824;5.564;2023-05-20T04:41:50;102304.41;;;10.88;75.63
57990;BME280;58373;51.824;5.564;2023-05-20T04:44:18;102305.34;;;10.87;75.97
57990;BME280;58373;51.824;5.564;2023-05-20T04:46:44;102306.91;;;10.89;76.44
57990;BME280;58373;51.824;5.564;2023-05-20T04:49:10;102308.59;;;10.90;76.27
57990;BME280;58373;51.824;5.564;2023-05-20T04:51:35;102311.09;;;10.92;76.55
57990;BME280;58373;51.824;5.564;2023-05-20T04:54:00;102304.03;;;10.94;75.46
57990;BME280;58373;51.824;5.564;2023-05-20T04:56:26;102300.53;;;10.95;75.57
57990;BME280;58373;51.824;5.564;2023-05-20T04:58:51;102302.22;;;10.96;75.64
57990;BME280;58373;51.824;5.564;2023-05-20T05:01:16;102293.50;;;10.97;76.35
57990;BME280;58373;51.824;5.564;2023-05-20T05:03:41;102295.16;;;10.98;76.48
57990;BME280;58373;51.824;5.564;2023-05-20T05:06:07;102304.44;;;11.02;75.48
57990;BME280;58373;51.824;5.564;2023-05-20T05:08:32;102300.72;;;11.06;77.36
57990;BME280;58373;51.824;5.564;2023-05-20T05:10:57;102303.31;;;11.06;76.54
57990;BME280;58373;51.824;5.564;2023-05-20T05:13:22;102299.63;;;11.10;77.50
57990;BME280;58373;51.824;5.564;2023-05-20T05:15:47;102293.41;;;11.13;77.00
57990;BME280;58373;51.824;5.564;2023-05-20T05:18:13;102295.09;;;11.14;77.40
57990;BME280;58373;51.824;5.564;2023-05-20T05:20:42;102300.91;;;11.17;77.70
57990;BME280;58373;51.824;5.564;2023-05-20T05:23:07;102287.84;;;11.19;78.35
57990;BME280;58373;51.824;5.564;2023-05-20T05:25:32;102288.47;;;11.23;77.00
57990;BME280;58373;51.824;5.564;2023-05-20T05:27:57;102287.38;;;11.27;78.30
57990;BME280;58373;51.824;5.564;2023-05-20T05:30:23;102282.91;;;11.29;77.16
57990;BME280;58373;51.824;5.564;2023-05-20T05:32:48;102282.53;;;11.35;77.73
57990;BME280;58373;51.824;5.564;2023-05-20T05:35:13;102287.56;;;11.38;78.62
57990;BME280;58373;51.824;5.564;2023-05-20T05:37:38;102288.22;;;11.41;77.42
57990;BME280;58373;51.824;5.564;2023-05-20T05:40:04;102292.19;;;11.47;78.52
57990;BME280;58373;51.824;5.564;2023-05-20T05:42:29;102293.47;;;11.54;77.97
57990;BME280;58373;51.824;5.564;2023-05-20T05:44:54;102286.22;;;11.59;77.14
57990;BME280;58373;51.824;5.564;2023-05-20T05:47:20;102285.84;;;11.65;77.40
57990;BME280;58373;51.824;5.564;2023-05-20T05:49:45;102293.97;;;11.74;76.85
57990;BME280;58373;51.824;5.564;2023-05-20T05:52:10;102295.25;;;11.81;76.01
57990;BME280;58373;51.824;5.564;2023-05-20T05:54:35;102288.97;;;11.85;76.87
57990;BME280;58373;51.824;5.564;2023-05-20T05:57:01;102285.97;;;11.91;76.65
57990;BME280;58373;51.824;5.564;2023-05-20T05:59:26;102291.63;;;11.98;76.40
57990;BME280;58373;51.824;5.564;2023-05-20T06:01:51;102296.41;;;12.04;76.00
57990;BME280;58373;51.824;5.564;2023-05-20T06:04:16;102285.63;;;12.10;75.99
57990;BME280;58373;51.824;5.564;2023-05-20T06:06:41;102287.75;;;12.17;75.89
57990;BME280;58373;51.824;5.564;2023-05-20T06:09:07;102289.00;;;12.25;75.95
57990;BME280;58373;51.824;5.564;2023-05-20T06:11:32;102287.66;;;12.32;75.36
57990;BME280;58373;51.824;5.564;2023-05-20T06:13:57;102288.94;;;12.39;75.75
57990;BME280;58373;51.824;5.564;2023-05-20T06:16:24;102292.81;;;12.46;75.18
57990;BME280;58373;51.824;5.564;2023-05-20T06:18:49;102288.03;;;12.53;75.31
57990;BME280;58373;51.824;5.564;2023-05-20T06:21:14;102284.91;;;12.60;75.31
57990;BME280;58373;51.824;5.564;2023-05-20T06:23:39;102277.44;;;12.68;75.19
57990;BME280;58373;51.824;5.564;2023-05-20T06:26:05;102278.69;;;12.75;74.52
57990;BME280;58373;51.824;5.564;2023-05-20T06:28:30;102278.25;;;12.82;74.76
57990;BME280;58373;51.824;5.564;2023-05-20T06:30:55;102270.75;;;12.90;73.47
57990;BME280;58373;51.824;5.564;2023-05-20T06:33:24;102271.19;;;12.96;74.04
57990;BME280;58373;51.824;5.564;2023-05-20T06:35:53;102273.25;;;13.04;73.78
57990;BME280;58373;51.824;5.564;2023-05-20T06:38:19;102259.69;;;13.12;73.70
57990;BME280;58373;51.824;5.564;2023-05-20T06:40:44;102269.59;;;13.19;72.99
57990;BME280;58373;51.824;5.564;2023-05-20T06:43:09;102269.91;;;13.27;73.14
57990;BME280;58373;51.824;5.564;2023-05-20T06:45:34;102257.16;;;13.36;72.40
57990;BME280;58373;51.824;5.564;2023-05-20T06:48:00;102263.63;;;13.43;72.19
57990;BME280;58373;51.824;5.564;2023-05-20T06:50:25;102258.81;;;13.49;71.89
57990;BME280;58373;51.824;5.564;2023-05-20T06:52:52;102259.91;;;13.58;72.10
57990;BME280;58373;51.824;5.564;2023-05-20T06:55:17;102261.88;;;13.67;72.13
57990;BME280;58373;51.824;5.564;2023-05-20T06:57:42;102255.16;;;13.76;71.80
57990;BME280;58373;51.824;5.564;2023-05-20T07:00:08;102257.94;;;13.86;70.89
57990;BME280;58373;51.824;5.564;2023-05-20T07:02:34;102252.16;;;13.93;70.76
57990;BME280;58373;51.824;5.564;2023-05-20T07:04:59;102247.34;;;14.00;69.95
57990;BME280;58373;51.824;5.564;2023-05-20T07:07:24;102246.66;;;14.09;70.07
57990;BME280;58373;51.824;5.564;2023-05-20T07:09:50;102247.28;;;14.13;69.21
57990;BME280;58373;51.824;5.564;2023-05-20T07:12:15;102249.31;;;14.20;69.53
57990;BME280;58373;51.824;5.564;2023-05-20T07:14:41;102245.28;;;14.27;68.29
57990;BME280;58373;51.824;5.564;2023-05-20T07:17:06;102238.88;;;14.31;67.67
57990;BME280;58373;51.824;5.564;2023-05-20T07:19:32;102248.88;;;14.38;67.91
57990;BME280;58373;51.824;5.564;2023-05-20T07:21:57;102240.56;;;14.44;67.89
57990;BME280;58373;51.824;5.564;2023-05-20T07:24:22;102239.94;;;14.53;68.30
57990;BME280;58373;51.824;5.564;2023-05-20T07:26:48;102240.06;;;14.63;66.97
57990;BME280;58373;51.824;5.564;2023-05-20T07:29:13;102230.69;;;14.71;66.89
57990;BME280;58373;51.824;5.564;2023-05-20T07:31:38;102234.47;;;14.78;66.72
57990;BME280;58373;51.824;5.564;2023-05-20T07:34:03;102228.56;;;14.87;66.65
57990;BME280;58373;51.824;5.564;2023-05-20T07:36:29;102240.19;;;14.95;64.04
57990;BME280;58373;51.824;5.564;2023-05-20T07:38:54;102230.09;;;15.01;66.04
57990;BME280;58373;51.824;5.564;2023-05-20T07:41:19;102220.94;;;15.07;65.78
57990;BME280;58373;51.824;5.564;2023-05-20T07:43:45;102220.22;;;15.16;64.98
57990;BME280;58373;51.824;5.564;2023-05-20T07:46:10;102216.03;;;15.25;64.05
57990;BME280;58373;51.824;5.564;2023-05-20T07:48:35;102211.19;;;15.31;63.37
57990;BME280;58373;51.824;5.564;2023-05-20T07:51:00;102220.88;;;15.40;62.96
57990;BME280;58373;51.824;5.564;2023-05-20T07:53:26;102217.78;;;15.47;62.38
57990;BME280;58373;51.824;5.564;2023-05-20T07:55:51;102221.81;;;15.51;62.63
57990;BME280;58373;51.824;5.564;2023-05-20T07:58:16;102224.63;;;15.59;61.05
57990;BME280;58373;51.824;5.564;2023-05-20T08:00:42;102214.44;;;15.67;62.18
57990;BME280;58373;51.824;5.564;2023-05-20T08:03:08;102217.97;;;15.77;62.26
57990;BME280;58373;51.824;5.564;2023-05-20T08:05:35;102213.88;;;15.84;61.34
57990;BME280;58373;51.824;5.564;2023-05-20T08:08:00;102216.00;;;15.90;59.15
57990;BME280;58373;51.824;5.564;2023-05-20T08:10:25;102213.63;;;15.87;58.49
57990;BME280;58373;51.824;5.564;2023-05-20T08:12:51;102219.81;;;15.86;59.45
57990;BME280;58373;51.824;5.564;2023-05-20T08:15:16;102225.50;;;15.91;57.72
57990;BME280;58373;51.824;5.564;2023-05-20T08:17:41;102218.63;;;15.90;56.64
57990;BME280;58373;51.824;5.564;2023-05-20T08:20:06;102211.22;;;15.96;58.04
57990;BME280;58373;51.824;5.564;2023-05-20T08:22:32;102200.50;;;15.99;56.29
57990;BME280;58373;51.824;5.564;2023-05-20T08:24:58;102217.03;;;15.99;56.25
57990;BME280;58373;51.824;5.564;2023-05-20T08:27:23;102211.53;;;16.02;56.96
57990;BME280;58373;51.824;5.564;2023-05-20T08:29:48;102222.59;;;16.06;56.70
57990;BME280;58373;51.824;5.564;2023-05-20T08:32:14;102225.91;;;16.08;56.38
57990;BME280;58373;51.824;5.564;2023-05-20T08:34:39;102205.66;;;16.10;55.23
57990;BME280;58373;51.824;5.564;2023-05-20T08:37:04;102208.28;;;16.10;56.46
57990;BME280;58373;51.824;5.564;2023-05-20T08:39:29;102200.88;;;16.15;56.02
57990;BME280;58373;51.824;5.564;2023-05-20T08:41:54;102202.28;;;16.19;56.05
57990;BME280;58373;51.824;5.564;2023-05-20T08:44:20;102207.03;;;16.25;56.52
57990;BME280;58373;51.824;5.564;2023-05-20T08:46:45;102195.75;;;16.34;56.20
57990;BME280;58373;51.824;5.564;2023-05-20T08:49:11;102189.75;;;16.43;56.56
57990;BME280;58373;51.824;5.564;2023-05-20T08:51:36;102189.44;;;16.58;56.51
57990;BME280;58373;51.824;5.564;2023-05-20T08:54:03;102186.00;;;16.67;56.85
57990;BME280;58373;51.824;5.564;2023-05-20T08:56:28;102183.84;;;16.72;54.84
57990;BME280;58373;51.824;5.564;2023-05-20T08:58:53;102178.91;;;16.79;54.77
57990;BME280;58373;51.824;5.564;2023-05-20T09:01:22;102194.22;;;16.83;55.62
57990;BME280;58373;51.824;5.564;2023-05-20T09:03:48;102185.25;;;16.86;55.21
57990;BME280;58373;51.824;5.564;2023-05-20T09:06:14;102187.16;;;16.74;54.93
57990;BME280;58373;51.824;5.564;2023-05-20T09:08:40;102176.94;;;16.71;55.52
57990;BME280;58373;51.824;5.564;2023-05-20T09:11:08;102181.66;;;16.77;55.17
57990;BME280;58373;51.824;5.564;2023-05-20T09:13:33;102188.84;;;16.85;54.56
57990;BME280;58373;51.824;5.564;2023-05-20T09:15:59;102185.59;;;16.92;54.30
57990;BME280;58373;51.824;5.564;2023-05-20T09:18:25;102172.63;;;17.01;54.98
57990;BME280;58373;51.824;5.564;2023-05-20T09:20:50;102174.47;;;17.10;52.93
57990;BME280;58373;51.824;5.564;2023-05-20T09:23:17;102176.53;;;17.16;53.68
57990;BME280;58373;51.824;5.564;2023-05-20T09:25:43;102163.31;;;17.27;53.96
57990;BME280;58373;51.824;5.564;2023-05-20T09:28:08;102161.09;;;17.32;52.17
57990;BME280;58373;51.824;5.564;2023-05-20T09:30:33;102160.78;;;17.25;52.12
57990;BME280;58373;51.824;5.564;2023-05-20T09:32:59;102164.66;;;17.31;51.68
57990;BME280;58373;51.824;5.564;2023-05-20T09:35:25;102171.16;;;17.27;52.18
57990;BME280;58373;51.824;5.564;2023-05-20T09:37:54;102162.47;;;17.36;51.92
57990;BME280;58373;51.824;5.564;2023-05-20T09:40:23;102161.38;;;17.29;52.13
57990;BME280;58373;51.824;5.564;2023-05-20T09:42:58;102158.88;;;17.37;51.28
57990;BME280;58373;51.824;5.564;2023-05-20T09:45:25;102163.88;;;17.40;51.52
57990;BME280;58373;51.824;5.564;2023-05-20T09:47:50;102155.44;;;17.46;51.95
57990;BME280;58373;51.824;5.564;2023-05-20T09:50:19;102147.59;;;17.56;51.45
57990;BME280;58373;51.824;5.564;2023-05-20T09:52:48;102162.34;;;17.57;51.52
57990;BME280;58373;51.824;5.564;2023-05-20T09:55:15;102156.97;;;17.59;51.47
57990;BME280;58373;51.824;5.564;2023-05-20T09:57:41;102151.44;;;17.62;51.67
57990;BME280;58373;51.824;5.564;2023-05-20T10:00:06;102145.66;;;17.68;51.03
57990;BME280;58373;51.824;5.564;2023-05-20T10:02:37;102152.28;;;17.72;51.47
57990;BME280;58373;51.824;5.564;2023-05-20T10:05:03;102156.13;;;17.77;51.42
57990;BME280;58373;51.824;5.564;2023-05-20T10:07:48;102161.13;;;17.81;51.26
57990;BME280;58373;51.824;5.564;2023-05-20T10:12:47;102142.03;;;17.88;50.42
57990;BME280;58373;51.824;5.564;2023-05-20T10:15:17;102147.69;;;17.93;51.52
57990;BME280;58373;51.824;5.564;2023-05-20T10:20:12;102137.19;;;17.93;51.07
57990;BME280;58373;51.824;5.564;2023-05-20T10:22:38;102137.34;;;18.01;50.97
57990;BME280;58373;51.824;5.564;2023-05-20T10:25:04;102131.22;;;18.11;50.55
57990;BME280;58373;51.824;5.564;2023-05-20T10:27:45;102120.16;;;18.17;51.10
57990;BME280;58373;51.824;5.564;2023-05-20T10:30:17;102128.97;;;18.25;51.44
57990;BME280;58373;51.824;5.564;2023-05-20T10:32:52;102122.31;;;18.31;49.81
57990;BME280;58373;51.824;5.564;2023-05-20T10:35:21;102129.50;;;18.29;49.99
57990;BME280;58373;51.824;5.564;2023-05-20T10:37:46;102132.53;;;18.34;49.77
57990;BME280;58373;51.824;5.564;2023-05-20T10:40:15;102119.00;;;18.29;49.74
57990;BME280;58373;51.824;5.564;2023-05-20T10:42:42;102121.75;;;18.37;48.98
57990;BME280;58373;51.824;5.564;2023-05-20T10:45:07;102109.28;;;18.39;49.03
57990;BME280;58373;51.824;5.564;2023-05-20T10:47:33;102113.94;;;18.45;48.30
57990;BME280;58373;51.824;5.564;2023-05-20T10:49:59;102117.28;;;18.47;49.23
57990;BME280;58373;51.824;5.564;2023-05-20T10:52:26;102098.44;;;18.52;49.71
57990;BME280;58373;51.824;5.564;2023-05-20T10:54:55;102109.78;;;18.52;48.62
57990;BME280;58373;51.824;5.564;2023-05-20T10:57:21;102099.94;;;18.54;48.74
57990;BME280;58373;51.824;5.564;2023-05-20T10:59:46;102104.53;;;18.52;49.44
57990;BME280;58373;51.824;5.564;2023-05-20T11:02:14;102107.91;;;18.63;48.89
57990;BME280;58373;51.824;5.564;2023-05-20T11:04:41;102098.09;;;18.65;48.54
57990;BME280;58373;51.824;5.564;2023-05-20T11:07:07;102099.75;;;18.66;49.51
57990;BME280;58373;51.824;5.564;2023-05-20T11:09:32;102094.91;;;18.71;49.39
57990;BME280;58373;51.824;5.564;2023-05-20T11:11:58;102091.16;;;18.73;49.78
57990;BME280;58373;51.824;5.564;2023-05-20T11:14:23;102087.81;;;18.81;47.82
57990;BME280;58373;51.824;5.564;2023-05-20T11:16:52;102091.50;;;18.88;48.94
57990;BME280;58373;51.824;5.564;2023-05-20T11:19:18;102086.63;;;18.93;48.72
57990;BME280;58373;51.824;5.564;2023-05-20T11:21:46;102087.94;;;18.97;47.72
57990;BME280;58373;51.824;5.564;2023-05-20T11:24:12;102091.19;;;19.09;48.10
57990;BME280;58373;51.824;5.564;2023-05-20T11:26:38;102075.94;;;19.13;48.15
57990;BME280;58373;51.824;5.564;2023-05-20T11:29:03;102082.03;;;19.13;46.49
57990;BME280;58373;51.824;5.564;2023-05-20T11:31:29;102075.66;;;19.16;47.71
57990;BME280;58373;51.824;5.564;2023-05-20T11:33:54;102072.78;;;19.27;48.30
57990;BME280;58373;51.824;5.564;2023-05-20T11:36:19;102087.66;;;19.36;47.43
57990;BME280;58373;51.824;5.564;2023-05-20T11:38:46;102075.47;;;19.35;47.54
57990;BME280;58373;51.824;5.564;2023-05-20T11:41:11;102076.75;;;19.31;47.75
57990;BME280;58373;51.824;5.564;2023-05-20T11:43:37;102073.47;;;19.29;47.00
57990;BME280;58373;51.824;5.564;2023-05-20T11:46:03;102068.88;;;19.31;48.17
57990;BME280;58373;51.824;5.564;2023-05-20T11:48:28;102056.44;;;19.41;47.31
57990;BME280;58373;51.824;5.564;2023-05-20T11:50:54;102070.13;;;19.45;48.14
57990;BME280;58373;51.824;5.564;2023-05-20T11:53:20;102064.41;;;19.49;48.01
57990;BME280;58373;51.824;5.564;2023-05-20T11:55:53;102069.00;;;19.47;47.77
57990;BME280;58373;51.824;5.564;2023-05-20T11:58:19;102066.81;;;19.43;47.67
57990;BME280;58373;51.824;5.564;2023-05-20T12:00:45;102068.94;;;19.39;47.80
57990;BME280;58373;51.824;5.564;2023-05-20T12:03:10;102052.19;;;19.40;47.91
57990;BME280;58373;51.824;5.564;2023-05-20T12:05:36;102058.47;;;19.47;47.50
57990;BME280;58373;51.824;5.564;2023-05-20T12:08:01;102048.97;;;19.54;48.14
57990;BME280;58373;51.824;5.564;2023-05-20T12:10:28;102050.72;;;19.63;46.27
57990;BME280;58373;51.824;5.564;2023-05-20T12:12:53;102033.19;;;19.54;47.32
57990;BME280;58373;51.824;5.564;2023-05-20T12:15:18;102046.03;;;19.57;45.46
57990;BME280;58373;51.824;5.564;2023-05-20T12:17:47;102041.06;;;19.54;46.23
57990;BME280;58373;51.824;5.564;2023-05-20T12:20:13;102043.88;;;19.53;46.23
57990;BME280;58373;51.824;5.564;2023-05-20T12:22:40;102042.69;;;19.47;46.54
57990;BME280;58373;51.824;5.564;2023-05-20T12:25:05;102045.16;;;19.49;46.00
57990;BME280;58373;51.824;5.564;2023-05-20T12:27:31;102048.28;;;19.44;47.04
57990;BME280;58373;51.824;5.564;2023-05-20T12:29:57;102051.84;;;19.43;46.32
57990;BME280;58373;51.824;5.564;2023-05-20T12:32:22;102047.56;;;19.42;47.18
57990;BME280;58373;51.824;5.564;2023-05-20T12:34:48;102046.91;;;19.40;46.19
57990;BME280;58373;51.824;5.564;2023-05-20T12:37:13;102040.00;;;19.39;47.47
57990;BME280;58373;51.824;5.564;2023-05-20T12:39:38;102047.41;;;19.44;47.04
57990;BME280;58373;51.824;5.564;2023-05-20T12:42:03;102039.69;;;19.42;46.68
57990;BME280;58373;51.824;5.564;2023-05-20T12:44:28;102040.50;;;19.43;46.57
57990;BME280;58373;51.824;5.564;2023-05-20T12:46:54;102033.38;;;19.35;46.83
57990;BME280;58373;51.824;5.564;2023-05-20T12:49:19;102029.78;;;19.36;46.54
57990;BME280;58373;51.824;5.564;2023-05-20T12:51:44;102019.31;;;19.44;47.37